Adams, Oklahoma
Current Conditions -  °F | °C
As of 7:15 AM on Monday 22 Dec 2014 (Local Time) from KLBL Reporting Station
Few Clouds Few Clouds  
Wind Chill: 32°   Ceiling: Unl
Heat Index: 41°   Visibility: 10mi
Dew Point: 34°   Wind: 18mph
Humidity: 76%   Direction: 300°WNW
Pressure: 29.69"   Gusts: 24mph
Location:  36.76°N, 101.08°W
Report Text: KLBL 221315Z AUTO 30016G21KT 10SM FEW120 05/01 A2969 RMK AO1
Loading
Personal Weather Stations






























Interactive Weather Map New forecast layout! Learn more

10-Day Weather Forecast

Advertisements
Track Severe Weather on mobile